createdAt,value
2016-02-14T00:00:18.446Z,86.63
2016-02-14T00:01:18.448Z,87.11
2016-02-14T00:02:18.435Z,86.72
2016-02-14T00:03:18.454Z,87.11
2016-02-14T00:04:18.440Z,87.01
2016-02-14T00:05:18.443Z,87.11
2016-02-14T00:06:18.446Z,87.11
2016-02-14T00:07:18.448Z,87.2
2016-02-14T00:08:18.451Z,87.01
2016-02-14T00:09:18.438Z,87.01
2016-02-14T00:10:18.441Z,87.01
2016-02-14T00:11:18.444Z,87.05
2016-02-14T00:12:18.446Z,87.05
2016-02-14T00:13:18.448Z,87.05
2016-02-14T00:14:18.437Z,87.24
2016-02-14T00:15:18.439Z,86.87
2016-02-14T00:16:18.441Z,86.87
2016-02-14T00:17:18.445Z,86.96
2016-02-14T00:18:18.431Z,87.05
2016-02-14T00:19:18.450Z,86.87
2016-02-14T00:20:18.436Z,87.05
2016-02-14T00:21:18.439Z,86.96
2016-02-14T00:22:18.458Z,87.05
2016-02-14T00:23:18.429Z,86.96
2016-02-14T00:24:18.431Z,86.96
2016-02-14T00:25:18.433Z,86.96
2016-02-14T00:26:18.437Z,87.24
2016-02-14T00:27:18.424Z,87.2
2016-02-14T00:28:18.427Z,87.01
2016-02-14T00:29:18.430Z,87.01
2016-02-14T00:30:18.433Z,86.63
2016-02-14T00:31:18.440Z,87.2
2016-02-14T00:32:18.445Z,86.44
2016-02-14T00:33:18.431Z,86.44
2016-02-14T00:34:18.434Z,86.91
2016-02-14T00:35:18.426Z,87.01
2016-02-14T00:36:18.428Z,86.91
2016-02-14T00:37:18.431Z,86.82
2016-02-14T00:38:18.434Z,87.2
2016-02-14T00:39:18.436Z,87.3
2016-02-14T00:40:18.425Z,87.58
2016-02-14T00:41:18.427Z,87.49
2016-02-14T00:42:18.429Z,87.3
2016-02-14T00:43:18.433Z,87.3
2016-02-14T00:44:18.450Z,87.49
2016-02-14T00:45:18.421Z,87.77
2016-02-14T00:46:18.424Z,87.58
2016-02-14T00:47:18.427Z,87.68
2016-02-14T00:48:18.429Z,87.87
2016-02-14T00:49:18.417Z,87.58
2016-02-14T00:50:18.419Z,87.77
2016-02-14T00:51:18.422Z,87.39
2016-02-14T00:52:18.425Z,87.39
2016-02-14T00:53:18.443Z,87.68
2016-02-14T00:54:18.414Z,87.3
2016-02-14T00:55:18.418Z,87.3
2016-02-14T00:56:18.420Z,87.01
2016-02-14T00:57:18.423Z,87.11
2016-02-14T00:58:18.410Z,87.11
2016-02-14T00:59:18.412Z,86.96
2016-02-14T01:00:18.415Z,87.3
2016-02-14T01:01:18.418Z,87.11
2016-02-14T01:02:18.420Z,87.11
2016-02-14T01:03:18.408Z,86.63
2016-02-14T01:04:18.426Z,86.72
2016-02-14T01:05:18.413Z,86.82
2016-02-14T01:06:18.416Z,87.11
2016-02-14T01:07:18.403Z,87.01
2016-02-14T01:08:18.406Z,86.91
2016-02-14T01:09:18.408Z,86.91
2016-02-14T01:10:18.411Z,87.11
2016-02-14T01:11:18.413Z,87.11
2016-02-14T01:12:18.400Z,87.15
2016-02-14T01:13:18.403Z,86.77
2016-02-14T01:14:18.405Z,87.01
2016-02-14T01:15:18.409Z,87.24
2016-02-14T01:16:18.411Z,86.87
2016-02-14T01:17:18.414Z,86.49
2016-02-14T01:18:18.416Z,86.49
2016-02-14T01:19:18.404Z,86.49
2016-02-14T01:20:18.407Z,86.68
2016-02-14T01:21:18.409Z,86.87
2016-02-14T01:22:18.412Z,86.68
2016-02-14T01:23:18.399Z,86.77
2016-02-14T01:24:18.402Z,86.87
2016-02-14T01:25:18.405Z,86.87
2016-02-14T01:26:18.407Z,86.96
2016-02-14T01:27:18.409Z,86.87
2016-02-14T01:28:18.413Z,86.3
2016-02-14T01:29:18.399Z,86.2
2016-02-14T01:30:18.401Z,86.49
2016-02-14T01:31:18.404Z,86.3
2016-02-14T01:32:18.407Z,86.2
2016-02-14T01:33:18.394Z,86.49
2016-02-14T01:34:18.398Z,86.01
2016-02-14T01:35:18.400Z,85.82
2016-02-14T01:36:18.417Z,86.01
2016-02-14T01:37:18.406Z,86.11
2016-02-14T01:38:18.408Z,85.91
2016-02-14T01:39:18.394Z,85.82
2016-02-14T01:40:18.398Z,86.01
2016-02-14T01:41:18.400Z,85.44
2016-02-14T01:42:18.388Z,85.63
2016-02-14T01:43:18.406Z,85.44
2016-02-14T01:44:18.393Z,85.16
2016-02-14T01:45:18.396Z,84.68
2016-02-14T01:46:18.399Z,84.97
2016-02-14T01:47:18.416Z,85.06
2016-02-14T01:48:18.388Z,84.78
2016-02-14T01:49:18.406Z,84.49
2016-02-14T01:50:18.393Z,84.59
2016-02-14T01:51:18.380Z,84.4
2016-02-14T01:52:18.382Z,83.83
2016-02-14T01:53:18.385Z,84.01
2016-02-14T01:54:18.404Z,83.64
2016-02-14T01:55:18.390Z,83.54
2016-02-14T01:56:18.393Z,83.83
2016-02-14T01:57:18.396Z,83.45
2016-02-14T01:58:18.384Z,82.88
2016-02-14T01:59:18.402Z,82.78
2016-02-14T02:00:18.390Z,82.88
2016-02-14T02:01:18.392Z,82.21
2016-02-14T02:02:18.410Z,82.45
2016-02-14T02:03:18.381Z,82.16
2016-02-14T02:04:18.384Z,82.4
2016-02-14T02:05:18.387Z,81.55
2016-02-14T02:06:18.389Z,81.97
2016-02-14T02:07:18.392Z,81.4
2016-02-14T02:08:18.379Z,81.3
2016-02-14T02:09:18.398Z,80.93
2016-02-14T02:10:18.384Z,81.17
2016-02-14T02:11:18.387Z,80.83
2016-02-14T02:12:18.389Z,80.69
2016-02-14T02:13:18.378Z,80.41
2016-02-14T02:14:18.380Z,80.51
2016-02-14T02:15:18.382Z,80.51
2016-02-14T02:16:18.385Z,80.41
2016-02-14T02:17:18.403Z,80.32
2016-02-14T02:18:18.375Z,80.22
2016-02-14T02:19:18.378Z,79.94
2016-02-14T02:20:18.380Z,80.22
2016-02-14T02:21:18.382Z,79.84
2016-02-14T02:22:18.371Z,80.03
2016-02-14T02:23:18.373Z,79.84
2016-02-14T02:24:18.375Z,79.84
2016-02-14T02:25:18.379Z,79.94
2016-02-14T02:26:18.365Z,80.03
2016-02-14T02:27:18.368Z,79.65
2016-02-14T02:28:18.387Z,79.74
2016-02-14T02:29:18.373Z,79.84
2016-02-14T02:30:18.376Z,80.03
2016-02-14T02:31:18.363Z,79.74
2016-02-14T02:32:18.365Z,80.03
2016-02-14T02:33:18.368Z,79.84
2016-02-14T02:34:18.371Z,79.36
2016-02-14T02:35:18.373Z,79.65
2016-02-14T02:36:18.376Z,79.74
2016-02-14T02:37:18.364Z,79.94
2016-02-14T02:38:18.366Z,79.84
2016-02-14T02:39:18.369Z,79.65
2016-02-14T02:40:18.372Z,78.89
2016-02-14T02:41:18.374Z,79.17
2016-02-14T02:42:18.361Z,78.8
2016-02-14T02:43:18.364Z,78.99
2016-02-14T02:44:18.366Z,78.23
2016-02-14T02:45:18.369Z,78.36
2016-02-14T02:46:18.356Z,78.74
2016-02-14T02:47:18.359Z,78.23
2016-02-14T02:48:18.361Z,78.13
2016-02-14T02:49:18.364Z,77.84
2016-02-14T02:50:18.367Z,77.56
2016-02-14T02:51:18.369Z,77.56
2016-02-14T02:52:18.357Z,77.84
2016-02-14T02:53:18.375Z,77.75
2016-02-14T02:54:18.363Z,77.94
2016-02-14T02:55:18.366Z,77.66
2016-02-14T02:56:18.212Z,77.75
2016-02-14T02:57:18.354Z,77.94
2016-02-14T02:58:18.358Z,77.84
2016-02-14T02:59:18.360Z,78.13
2016-02-14T03:00:18.362Z,77.66
2016-02-14T03:01:18.365Z,77.66
2016-02-14T03:02:18.353Z,77.56
2016-02-14T03:03:18.370Z,77.66
2016-02-14T03:04:18.359Z,77.66
2016-02-14T03:05:18.345Z,78.03
2016-02-14T03:06:18.347Z,77.84
2016-02-14T03:07:18.351Z,77.66
2016-02-14T03:08:18.353Z,78.03
2016-02-14T03:09:18.355Z,77.66
2016-02-14T03:10:18.343Z,77.75
2016-02-14T03:11:18.345Z,77.56
2016-02-14T03:12:18.348Z,77.75
2016-02-14T03:13:18.351Z,77.84
2016-02-14T03:14:18.353Z,77.94
2016-02-14T03:15:18.356Z,78.13
2016-02-14T03:16:18.344Z,77.52
2016-02-14T03:17:18.362Z,78.19
2016-02-14T03:18:18.349Z,78.28
2016-02-14T03:19:18.351Z,78.19
2016-02-14T03:20:18.355Z,78
2016-02-14T03:21:18.341Z,78.19
2016-02-14T03:22:18.344Z,78.38
2016-02-14T03:23:18.346Z,78.47
2016-02-14T03:24:18.349Z,78.66
2016-02-14T03:25:18.352Z,78.66
2016-02-14T03:26:18.354Z,79.04
2016-02-14T03:27:18.357Z,79.23
2016-02-14T03:28:18.344Z,79.33
2016-02-14T03:29:18.347Z,79.23
2016-02-14T03:30:18.349Z,79.14
2016-02-14T03:31:18.337Z,79.8
2016-02-14T03:32:18.340Z,79.42
2016-02-14T03:33:18.342Z,79.8
2016-02-14T03:34:18.345Z,79.71
2016-02-14T03:35:18.332Z,79.33
2016-02-14T03:36:18.334Z,79.52
2016-02-14T03:37:18.337Z,79.61
2016-02-14T03:38:18.356Z,79.33
2016-02-14T03:39:18.327Z,79.33
2016-02-14T03:40:18.331Z,79.42
2016-02-14T03:41:18.333Z,79.33
2016-02-14T03:42:18.335Z,79.33
2016-02-14T03:43:18.338Z,79.8
2016-02-14T03:44:18.341Z,79.33
2016-02-14T03:45:18.327Z,79.14
2016-02-14T03:46:18.330Z,79.28
2016-02-14T03:47:18.333Z,80.04
2016-02-14T03:48:18.335Z,79.76
2016-02-14T03:49:18.323Z,79.85
2016-02-14T03:50:18.341Z,80.04
2016-02-14T03:51:18.327Z,80.24
2016-02-14T03:52:18.331Z,80.24
2016-02-14T03:53:18.333Z,79.95
2016-02-14T03:54:18.321Z,80.04
2016-02-14T03:55:18.323Z,80.43
2016-02-14T03:56:18.326Z,80.33
2016-02-14T03:57:18.329Z,80.33
2016-02-14T03:58:18.332Z,80.33
2016-02-14T03:59:18.318Z,80.43
2016-02-14T04:00:18.321Z,80.14
2016-02-14T04:01:18.323Z,80.33
2016-02-14T04:02:18.327Z,80.24
2016-02-14T04:03:18.313Z,80.33
2016-02-14T04:04:18.331Z,80.24
2016-02-14T04:05:18.351Z,80.24
2016-02-14T04:06:18.321Z,80.62
2016-02-14T04:07:18.324Z,80.9
2016-02-14T04:08:18.326Z,81.27
2016-02-14T04:09:18.329Z,80.8
2016-02-14T04:10:18.316Z,80.9
2016-02-14T04:11:18.320Z,80.71
2016-02-14T04:12:18.322Z,80.71
2016-02-14T04:13:18.324Z,80.86
2016-02-14T04:14:18.312Z,80.8
2016-02-14T04:15:18.314Z,81.05
2016-02-14T04:16:18.317Z,81.43
2016-02-14T04:17:18.320Z,81.43
2016-02-14T04:18:18.322Z,81.52
2016-02-14T04:19:18.310Z,81.62
2016-02-14T04:20:18.313Z,81.43
2016-02-14T04:21:18.315Z,81.52
2016-02-14T04:22:18.318Z,81.9
2016-02-14T04:23:18.305Z,82.09
2016-02-14T04:24:18.307Z,81.99
2016-02-14T04:25:18.310Z,82.28
2016-02-14T04:26:18.313Z,82.09
2016-02-14T04:27:18.316Z,81.99
2016-02-14T04:28:18.302Z,82.09
2016-02-14T04:29:18.321Z,82.47
2016-02-14T04:30:18.307Z,82.37
2016-02-14T04:31:18.310Z,82.18
2016-02-14T04:32:18.312Z,82.81
2016-02-14T04:33:18.300Z,82.66
2016-02-14T04:34:18.303Z,83.23
2016-02-14T04:35:18.321Z,83.32
2016-02-14T04:36:18.293Z,83.51
2016-02-14T04:37:18.295Z,83.8
2016-02-14T04:38:18.314Z,83.51
2016-02-14T04:39:18.301Z,83.32
2016-02-14T04:40:18.319Z,83.8
2016-02-14T04:41:18.306Z,83.61
2016-02-14T04:42:18.293Z,83.7
2016-02-14T04:43:18.299Z,83.42
2016-02-14T04:44:18.303Z,83.8
2016-02-14T04:45:18.305Z,83.61
2016-02-14T04:46:18.308Z,83.8
2016-02-14T04:47:18.295Z,83.23
2016-02-14T04:48:18.298Z,83.42
2016-02-14T04:49:18.300Z,83.7
2016-02-14T04:50:18.304Z,83.56
2016-02-14T04:51:18.290Z,83.56
2016-02-14T04:52:18.292Z,83.66
2016-02-14T04:53:18.295Z,83.47
2016-02-14T04:54:18.298Z,83.75
2016-02-14T04:55:18.285Z,83.56
2016-02-14T04:56:18.287Z,83.56
2016-02-14T04:57:18.290Z,83.56
2016-02-14T04:58:18.293Z,83.85
2016-02-14T04:59:18.281Z,83.66
2016-02-14T05:00:18.298Z,83.94
2016-02-14T05:01:18.286Z,84.04
2016-02-14T05:02:18.288Z,84.13
2016-02-14T05:03:18.292Z,84.13
2016-02-14T05:04:18.294Z,84.32
2016-02-14T05:05:18.296Z,84.51
2016-02-14T05:06:18.283Z,84.13
2016-02-14T05:07:18.286Z,84.99
2016-02-14T05:08:18.289Z,84.89
2016-02-14T05:09:18.292Z,84.8
2016-02-14T05:10:18.279Z,84.61
2016-02-14T05:11:18.281Z,84.7
2016-02-14T05:12:18.285Z,84.42
2016-02-14T05:13:18.272Z,84.99
2016-02-14T05:14:18.274Z,84.8
2016-02-14T05:15:18.278Z,85.17
2016-02-14T05:16:18.280Z,85.36
2016-02-14T05:17:18.283Z,85.42
2016-02-14T05:18:18.270Z,85.42
2016-02-14T05:19:18.288Z,85.7
2016-02-14T05:20:18.275Z,85.55
2016-02-14T05:21:18.278Z,85.93
2016-02-14T05:22:18.265Z,85.65
2016-02-14T05:23:18.283Z,86.12
2016-02-14T05:24:18.270Z,86.22
2016-02-14T05:25:18.274Z,86.22
2016-02-14T05:26:18.260Z,86.03
2016-02-14T05:27:18.279Z,86.31
2016-02-14T05:28:18.266Z,86.03
2016-02-14T05:29:18.284Z,86.79
2016-02-14T05:30:18.255Z,86.79
2016-02-14T05:31:18.258Z,86.5
2016-02-14T05:32:18.260Z,86.41
2016-02-14T05:33:18.262Z,86.5
2016-02-14T05:34:18.266Z,86.6
2016-02-14T05:35:18.253Z,86.6
2016-02-14T05:36:18.256Z,86.69
2016-02-14T05:37:18.259Z,86.69
2016-02-14T05:38:18.276Z,86.5
2016-02-14T05:39:18.264Z,86.5
2016-02-14T05:40:18.251Z,86.79
2016-02-14T05:41:18.269Z,86.69
2016-02-14T05:42:18.256Z,87.12
2016-02-14T05:43:18.258Z,86.93
2016-02-14T05:44:18.246Z,86.64
2016-02-14T05:45:18.250Z,86.64
2016-02-14T05:46:18.252Z,86.64
2016-02-14T05:47:18.255Z,86.64
2016-02-14T05:48:18.257Z,86.74
2016-02-14T05:49:18.244Z,86.55
2016-02-14T05:50:18.247Z,86.93
2016-02-14T05:51:18.249Z,86.93
2016-02-14T05:52:18.236Z,87.02
2016-02-14T05:53:18.239Z,87.12
2016-02-14T05:54:18.242Z,86.93
2016-02-14T05:55:18.245Z,86.93
2016-02-14T05:56:18.247Z,86.93
2016-02-14T05:57:18.234Z,86.64
2016-02-14T05:58:18.237Z,87.02
2016-02-14T05:59:18.240Z,86.93
2016-02-14T06:00:18.242Z,86.93
2016-02-14T06:01:18.229Z,86.59
2016-02-14T06:02:18.232Z,86.55
2016-02-14T06:03:18.234Z,86.83
2016-02-14T06:04:18.238Z,86.3
2016-02-14T06:05:18.229Z,86.21
2016-02-14T06:06:18.232Z,86.02
2016-02-14T06:07:18.219Z,86.3
2016-02-14T06:08:18.222Z,86.16
2016-02-14T06:09:18.225Z,85.93
2016-02-14T06:10:18.227Z,85.74
2016-02-14T06:11:18.215Z,86.02
2016-02-14T06:12:18.217Z,85.93
2016-02-14T06:13:18.219Z,86.02
2016-02-14T06:14:18.222Z,85.45
2016-02-14T06:15:18.225Z,85.26
2016-02-14T06:16:18.211Z,85.64
2016-02-14T06:17:18.214Z,85.83
2016-02-14T06:18:18.249Z,85.45
2016-02-14T06:19:18.219Z,85.55
2016-02-14T06:20:18.223Z,85.26
2016-02-14T06:21:18.210Z,85.55
2016-02-14T06:22:18.212Z,85.07
2016-02-14T06:23:18.215Z,85.45
2016-02-14T06:24:18.218Z,85.26
2016-02-14T06:25:18.220Z,84.98
2016-02-14T06:26:18.207Z,84.98
2016-02-14T06:27:18.210Z,85.07
2016-02-14T06:28:18.198Z,85.07
2016-02-14T06:29:18.060Z,84.69
2016-02-14T06:30:18.203Z,84.69
2016-02-14T06:31:18.206Z,84.98
2016-02-14T06:32:18.209Z,84.98
2016-02-14T06:33:18.195Z,84.98
2016-02-14T06:34:18.214Z,84.59
2016-02-14T06:35:18.200Z,84.88
2016-02-14T06:36:18.204Z,84.41
2016-02-14T06:37:18.206Z,84.31
2016-02-14T06:38:18.193Z,84.41
2016-02-14T06:39:18.195Z,84.41
2016-02-14T06:40:18.198Z,84.5
2016-02-14T06:41:18.200Z,84.12
2016-02-14T06:42:18.204Z,84.31
2016-02-14T06:43:18.191Z,84.41
2016-02-14T06:44:18.208Z,84.41
2016-02-14T06:45:18.197Z,84.12
2016-02-14T06:46:18.199Z,84.03
2016-02-14T06:47:18.186Z,84.31
2016-02-14T06:48:18.189Z,84.22
2016-02-14T06:49:18.192Z,84.31
2016-02-14T06:50:18.194Z,84.22
2016-02-14T06:51:18.181Z,84.5
2016-02-14T06:52:18.183Z,84.22
2016-02-14T06:53:18.186Z,84.12
2016-02-14T06:54:18.189Z,84.12
2016-02-14T06:55:18.191Z,84.59
2016-02-14T06:56:18.179Z,84.31
2016-02-14T06:57:18.182Z,84.5
2016-02-14T06:58:18.185Z,84.41
2016-02-14T06:59:18.187Z,84.41
2016-02-14T07:00:18.174Z,84.5
2016-02-14T07:01:18.166Z,84.45
2016-02-14T07:02:18.158Z,84.64
2016-02-14T07:03:18.152Z,84.64
2016-02-14T07:04:18.144Z,84.55
2016-02-14T07:05:18.138Z,84.55
2016-02-14T07:06:18.122Z,84.68
2016-02-14T07:07:18.120Z,84.11
2016-02-14T07:08:17.963Z,83.64
2016-02-14T07:09:18.119Z,83.11
2016-02-14T07:10:18.102Z,82.82
2016-02-14T07:11:18.104Z,81.63
2016-02-14T07:12:18.106Z,81.06
2016-02-14T07:13:18.107Z,80.24
2016-02-14T07:14:18.092Z,79.3
2016-02-14T07:15:18.095Z,78.48
2016-02-14T07:16:18.097Z,76.71
2016-02-14T07:17:18.114Z,74.24
2016-02-14T07:18:18.086Z,71.51
2016-02-14T07:19:18.088Z,69.32
2016-02-14T07:20:18.091Z,68.18
2016-02-14T07:21:18.093Z,66.94
2016-02-14T07:22:18.096Z,67
2016-02-14T07:23:18.097Z,66.72
2016-02-14T07:24:18.115Z,66.72
2016-02-14T07:25:18.086Z,66.05
2016-02-14T07:26:18.089Z,65.48
2016-02-14T07:27:18.092Z,64.62
2016-02-14T07:28:18.095Z,64.34
2016-02-14T07:29:18.097Z,64.53
2016-02-14T07:30:18.099Z,64.53
2016-02-14T07:31:18.087Z,64.34
2016-02-14T07:32:18.089Z,64.05
2016-02-14T07:33:18.092Z,64.24
2016-02-14T07:34:18.111Z,64.24
2016-02-14T07:35:18.097Z,64.05
2016-02-14T07:36:18.085Z,64.53
2016-02-14T07:37:18.088Z,64.05
2016-02-14T07:38:18.090Z,64.21
2016-02-14T07:39:18.092Z,64.62
2016-02-14T07:40:18.080Z,64.78
2016-02-14T07:41:18.082Z,64.78
2016-02-14T07:42:18.085Z,64.87
2016-02-14T07:43:18.088Z,64.78
2016-02-14T07:44:18.090Z,64.5
2016-02-14T07:45:18.093Z,64.97
2016-02-14T07:46:18.096Z,64.87
2016-02-14T07:47:18.098Z,64.69
2016-02-14T07:48:18.101Z,64.72
2016-02-14T07:49:18.089Z,64.81
2016-02-14T07:50:18.091Z,64.9
2016-02-14T07:51:18.095Z,64.43
2016-02-14T07:52:18.097Z,64.53
2016-02-14T07:53:18.084Z,64.24
2016-02-14T07:54:18.086Z,64.24
2016-02-14T07:55:18.089Z,64.15
2016-02-14T07:56:18.092Z,64.15
2016-02-14T07:57:18.110Z,64.43
2016-02-14T07:58:18.081Z,64.28
2016-02-14T07:59:18.083Z,64.56
2016-02-14T08:00:18.087Z,64.05
2016-02-14T08:01:18.089Z,63.76
2016-02-14T08:02:18.108Z,63.48
2016-02-14T08:03:18.094Z,63.29
2016-02-14T08:04:18.097Z,63.32
2016-02-14T08:05:18.100Z,63.01
2016-02-14T08:06:18.087Z,62.85
2016-02-14T08:07:18.090Z,62.56
2016-02-14T08:08:18.093Z,62.37
2016-02-14T08:09:18.096Z,61.99
2016-02-14T08:10:18.098Z,62.18
2016-02-14T08:11:18.101Z,62.37
2016-02-14T08:12:18.087Z,62.72
2016-02-14T08:13:18.091Z,62.72
2016-02-14T08:14:18.093Z,62.81
2016-02-14T08:15:18.095Z,62.91
2016-02-14T08:16:18.099Z,62.81
2016-02-14T08:17:18.085Z,63.1
2016-02-14T08:18:18.088Z,63.07
2016-02-14T08:19:18.091Z,63.17
2016-02-14T08:20:18.093Z,63.35
2016-02-14T08:21:18.096Z,64.02
2016-02-14T08:22:18.099Z,64.4
2016-02-14T08:23:18.102Z,64.31
2016-02-14T08:24:18.103Z,64.4
2016-02-14T08:25:18.106Z,64.21
2016-02-14T08:26:18.109Z,64.4
2016-02-14T08:27:18.097Z,64.21
2016-02-14T08:28:18.100Z,64.02
2016-02-14T08:29:18.102Z,64.31
2016-02-14T08:30:18.105Z,64.02
2016-02-14T08:31:18.108Z,64.21
2016-02-14T08:32:18.094Z,64.4
2016-02-14T08:33:18.097Z,64.21
2016-02-14T08:34:18.100Z,63.99
2016-02-14T08:35:18.102Z,64.46
2016-02-14T08:36:18.106Z,64.56
2016-02-14T08:37:18.108Z,65.03
2016-02-14T08:38:18.110Z,65.41
2016-02-14T08:39:18.113Z,65.32
2016-02-14T08:40:18.101Z,65.32
2016-02-14T08:41:18.104Z,64.65
2016-02-14T08:42:18.106Z,63.73
2016-02-14T08:43:18.109Z,63.54
2016-02-14T08:44:18.111Z,63.64
2016-02-14T08:45:18.115Z,64.11
2016-02-14T08:46:18.101Z,63.83
2016-02-14T08:47:18.103Z,63.73
2016-02-14T08:48:18.106Z,64.21
2016-02-14T08:49:18.109Z,64.21
2016-02-14T08:50:18.112Z,64.4
2016-02-14T08:51:18.099Z,64.02
2016-02-14T08:52:18.117Z,64.31
2016-02-14T08:53:18.104Z,64.11
2016-02-14T08:54:18.123Z,64.4
2016-02-14T08:55:18.109Z,64.11
2016-02-14T08:56:18.112Z,63.64
2016-02-14T08:57:18.115Z,63.2
2016-02-14T08:58:18.117Z,62.91
2016-02-14T08:59:18.120Z,62.81
2016-02-14T09:00:18.122Z,62.81
2016-02-14T09:01:18.111Z,62.43
2016-02-14T09:02:18.113Z,62.81
2016-02-14T09:03:18.131Z,62.62
2016-02-14T09:04:18.119Z,62.24
2016-02-14T09:05:18.121Z,62.15
2016-02-14T09:06:18.108Z,61.77
2016-02-14T09:07:18.126Z,61.42
2016-02-14T09:08:18.129Z,60.37
2016-02-14T09:09:18.132Z,59.99
2016-02-14T09:10:18.118Z,59.64
2016-02-14T09:11:18.122Z,59.26
2016-02-14T09:12:18.124Z,58.87
2016-02-14T09:13:18.127Z,58.21
2016-02-14T09:14:18.129Z,57.92
2016-02-14T09:15:18.116Z,57.54
2016-02-14T09:16:18.119Z,56.97
2016-02-14T09:17:18.121Z,57.26
2016-02-14T09:18:18.124Z,56.71
2016-02-14T09:19:18.127Z,56.71
2016-02-14T09:20:18.130Z,56.21
2016-02-14T09:21:18.132Z,56.11
2016-02-14T09:22:18.135Z,56.21
2016-02-14T09:23:18.123Z,56.68
2016-02-14T09:24:18.140Z,57.07
2016-02-14T09:25:18.127Z,56.59
2016-02-14T09:26:18.131Z,56.21
2016-02-14T09:27:18.133Z,56.3
2016-02-14T09:28:18.120Z,56.59
2016-02-14T09:29:18.139Z,56.27
2016-02-14T09:30:18.125Z,56.09
2016-02-14T09:31:18.144Z,56.37
2016-02-14T09:32:18.147Z,56.27
2016-02-14T09:33:18.149Z,56.75
2016-02-14T09:34:18.152Z,55.7
2016-02-14T09:35:18.139Z,54.88
2016-02-14T09:36:18.141Z,55.16
2016-02-14T09:37:18.145Z,54.78
2016-02-14T09:38:18.147Z,54.11
2016-02-14T09:39:18.134Z,54.11
2016-02-14T09:40:18.138Z,53.92
2016-02-14T09:41:18.140Z,53.44
2016-02-14T09:42:18.142Z,53.06
2016-02-14T09:43:18.145Z,52.2
2016-02-14T09:44:18.148Z,52.4
2016-02-14T09:45:18.151Z,52.97
2016-02-14T09:46:18.153Z,53.16
2016-02-14T09:47:18.140Z,53.06
2016-02-14T09:48:18.159Z,53.35
2016-02-14T09:49:18.145Z,53.44
2016-02-14T09:50:18.148Z,52.87
2016-02-14T09:51:18.150Z,53.09
2016-02-14T09:52:18.170Z,52.8
2016-02-14T09:53:18.140Z,52.9
2016-02-14T09:54:18.159Z,52.52
2016-02-14T09:55:18.146Z,52.04
2016-02-14T09:56:18.164Z,52.42
2016-02-14T09:57:18.167Z,51.76
2016-02-14T09:58:18.154Z,51.47
2016-02-14T09:59:18.156Z,51.85
2016-02-14T10:00:18.159Z,51.56
2016-02-14T10:01:18.162Z,51.85
2016-02-14T10:02:18.165Z,51.37
2016-02-14T10:03:18.167Z,51.56
2016-02-14T10:04:18.154Z,51.47
2016-02-14T10:05:18.158Z,51.66
2016-02-14T10:06:18.160Z,51.47
2016-02-14T10:07:18.162Z,51.12
2016-02-14T10:08:18.181Z,51.12
2016-02-14T10:09:18.168Z,51.31
2016-02-14T10:10:18.171Z,51.12
2016-02-14T10:11:18.174Z,50.45
2016-02-14T10:12:18.160Z,50.18
2016-02-14T10:13:18.179Z,50.09
2016-02-14T10:14:18.166Z,50.09
2016-02-14T10:15:18.168Z,49.8
2016-02-14T10:16:18.171Z,49.71
2016-02-14T10:17:18.174Z,49.62
2016-02-14T10:18:18.177Z,49.13
2016-02-14T10:19:18.163Z,49.23
2016-02-14T10:20:18.181Z,49.23
2016-02-14T10:21:18.169Z,49.33
2016-02-14T10:22:18.171Z,49.23
2016-02-14T10:23:18.173Z,48.78
2016-02-14T10:24:18.177Z,48.88
2016-02-14T10:25:18.179Z,48.21
2016-02-14T10:26:18.182Z,47.82
2016-02-14T10:27:18.185Z,48.02
2016-02-14T10:28:18.187Z,47.47
2016-02-14T10:29:18.206Z,47.56
2016-02-14T10:30:18.193Z,46.89
2016-02-14T10:31:18.180Z,46.8
2016-02-14T10:32:18.183Z,46.53
2016-02-14T10:33:18.201Z,46.25
2016-02-14T10:34:18.204Z,46.25
2016-02-14T10:35:18.191Z,46.15
2016-02-14T10:36:18.193Z,45.87
2016-02-14T10:37:18.200Z,45.7
2016-02-14T10:38:18.186Z,45.7
2016-02-14T10:39:18.189Z,45.03
2016-02-14T10:40:18.192Z,44.38
2016-02-14T10:41:18.194Z,44.48
2016-02-14T10:42:18.197Z,44.38
2016-02-14T10:43:18.200Z,44.09
2016-02-14T10:44:18.202Z,43.54
2016-02-14T10:45:18.205Z,43.54
2016-02-14T10:46:18.208Z,42.87
2016-02-14T10:47:18.210Z,42.58
2016-02-14T10:48:18.198Z,42.49
2016-02-14T10:49:18.200Z,43.06
2016-02-14T10:50:18.202Z,43.14
2016-02-14T10:51:18.205Z,43.52
2016-02-14T10:52:18.207Z,43.71
2016-02-14T10:53:18.210Z,43.71
2016-02-14T10:54:18.213Z,43.9
2016-02-14T10:55:18.232Z,43.62
2016-02-14T10:56:18.219Z,43.33
2016-02-14T10:57:18.237Z,42.66
2016-02-14T10:58:18.224Z,42.18
2016-02-14T10:59:18.212Z,42.35
2016-02-14T11:00:18.229Z,42.73
2016-02-14T11:01:18.217Z,43.5
2016-02-14T11:02:18.235Z,43.57
2016-02-14T11:03:18.254Z,43.57
2016-02-14T11:04:18.225Z,44.34
2016-02-14T11:05:18.228Z,44.79
2016-02-14T11:06:18.231Z,44.98
2016-02-14T11:07:18.233Z,45.27
2016-02-14T11:08:18.235Z,45.94
2016-02-14T11:09:18.239Z,46.51
2016-02-14T11:10:18.241Z,47.06
2016-02-14T11:11:18.244Z,47.06
2016-02-14T11:12:18.247Z,46.97
2016-02-14T11:13:18.233Z,47.54
2016-02-14T11:14:18.236Z,47.82
2016-02-14T11:15:18.239Z,47.82
2016-02-14T11:16:18.241Z,48.21
2016-02-14T11:17:18.244Z,48.59
2016-02-14T11:18:18.263Z,48.59
2016-02-14T11:19:18.266Z,48.78
2016-02-14T11:20:18.252Z,48.21
2016-02-14T11:21:18.255Z,48.3
2016-02-14T11:22:18.258Z,48.39
2016-02-14T11:23:18.260Z,48.85
2016-02-14T11:24:18.263Z,49.13
2016-02-14T11:25:18.265Z,48.47
2016-02-14T11:26:18.269Z,49.23
2016-02-14T11:27:18.271Z,49.33
2016-02-14T11:28:18.273Z,50.09
2016-02-14T11:29:18.277Z,50.45
2016-02-14T11:30:18.279Z,50.16
2016-02-14T11:31:18.125Z,50.45
2016-02-14T11:32:18.270Z,50.35
2016-02-14T11:33:18.272Z,51.12
2016-02-14T11:34:18.337Z,51.4
2016-02-14T11:35:18.278Z,51.4
2016-02-14T11:36:18.280Z,51.4
2016-02-14T11:37:18.283Z,51.68
2016-02-14T11:38:18.285Z,52.26
2016-02-14T11:39:18.288Z,51.97
2016-02-14T11:40:18.291Z,52.42
2016-02-14T11:41:18.278Z,52.61
2016-02-14T11:42:18.296Z,52.9
2016-02-14T11:43:18.283Z,53.19
2016-02-14T11:44:18.302Z,53.09
2016-02-14T11:45:18.288Z,53.19
2016-02-14T11:46:18.291Z,53.66
2016-02-14T11:47:18.310Z,53.56
2016-02-14T11:48:18.296Z,53.76
2016-02-14T11:49:18.300Z,53.28
2016-02-14T11:50:18.302Z,53.56
2016-02-14T11:51:18.305Z,53.56
2016-02-14T11:52:18.307Z,53.47
2016-02-14T11:53:18.293Z,53.64
2016-02-14T11:54:18.313Z,54.02
2016-02-14T11:55:18.299Z,54.49
2016-02-14T11:56:18.302Z,54.11
2016-02-14T11:57:18.305Z,54.59
2016-02-14T11:58:18.307Z,55.26
2016-02-14T11:59:18.310Z,55.35
2016-02-14T12:00:18.312Z,55.8
2016-02-14T12:01:18.315Z,55.99
2016-02-14T12:02:18.318Z,56.46
2016-02-14T12:03:18.320Z,56.85
2016-02-14T12:04:18.323Z,56.75
2016-02-14T12:05:18.326Z,57.23
2016-02-14T12:06:18.313Z,57.48
2016-02-14T12:07:18.331Z,57.99
2016-02-14T12:08:18.319Z,57.77
2016-02-14T12:09:18.337Z,58.34
2016-02-14T12:10:18.325Z,58.44
2016-02-14T12:11:18.327Z,58.81
2016-02-14T12:12:18.330Z,59.1
2016-02-14T12:13:18.333Z,59.48
2016-02-14T12:14:18.335Z,59.67
2016-02-14T12:15:18.322Z,59.86
2016-02-14T12:16:18.325Z,60.34
2016-02-14T12:17:18.327Z,61.19
2016-02-14T12:18:18.330Z,61.29
2016-02-14T12:19:18.332Z,61.77
2016-02-14T12:20:18.336Z,61.67
2016-02-14T12:21:18.338Z,61.96
2016-02-14T12:22:18.356Z,62.34
2016-02-14T12:23:18.344Z,62.72
2016-02-14T12:24:18.346Z,62.62
2016-02-14T12:25:18.349Z,63.29
2016-02-14T12:26:18.351Z,63.29
2016-02-14T12:27:18.355Z,63.1
2016-02-14T12:28:18.341Z,64.15
2016-02-14T12:29:18.343Z,64.53
2016-02-14T12:30:18.347Z,64.34
2016-02-14T12:31:18.349Z,64.9
2016-02-14T12:32:18.352Z,64.72
2016-02-14T12:33:18.354Z,65
2016-02-14T12:34:18.342Z,65
2016-02-14T12:35:18.345Z,65.38
2016-02-14T12:36:18.362Z,65.86
2016-02-14T12:37:18.350Z,66.05
2016-02-14T12:38:18.368Z,66.05
2016-02-14T12:39:18.356Z,66.05
2016-02-14T12:40:18.358Z,65.95
2016-02-14T12:41:18.376Z,65.38
2016-02-14T12:42:18.364Z,65.48
2016-02-14T12:43:18.366Z,64.62
2016-02-14T12:44:18.369Z,64.53
2016-02-14T12:45:18.372Z,64.9
2016-02-14T12:46:18.359Z,64.62
2016-02-14T12:47:18.361Z,65.16
2016-02-14T12:48:18.380Z,66.02
2016-02-14T12:49:18.366Z,66.02
2016-02-14T12:50:18.369Z,66.02
2016-02-14T12:51:18.372Z,66.39
2016-02-14T12:52:18.374Z,66.59
2016-02-14T12:53:18.378Z,66.97
2016-02-14T12:54:18.380Z,67.07
2016-02-14T12:55:18.368Z,67.63